Time,TemperatureF,DewpointF,PressureIn,WindDirection,WindDirectionDegrees,WindSpeedMPH,WindSpeedGustMPH,Humidity,HourlyPrecipIn,Conditions,Clouds,dailyrainin,SoftwareType,DateUTC
2013-05-10 00:03:00,67.0,63.0,30.16,ESE,109,5.0,7.0,86,-99.99,,,-99.99,,2013-05-10 04:03:00,
2013-05-10 00:12:00,67.0,63.0,30.16,ESE,109,5.0,7.0,86,-99.99,,,-99.99,,2013-05-10 04:12:00,
2013-05-10 00:23:00,67.0,63.0,30.16,ESE,109,5.0,7.0,86,-99.99,,,-99.99,,2013-05-10 04:23:00,
2013-05-10 00:33:00,67.0,63.0,30.16,East,100,4.0,5.0,87,-99.99,,,-99.99,,2013-05-10 04:33:00,
2013-05-10 00:43:00,67.0,63.0,30.17,East,101,3.0,4.0,87,-99.99,,,-99.99,,2013-05-10 04:43:00,
2013-05-10 00:53:00,67.0,63.0,30.17,East,101,3.0,4.0,87,-99.99,,,-99.99,,2013-05-10 04:53:00,
2013-05-10 01:02:00,66.0,62.0,30.17,ESE,102,3.0,4.0,87,-99.99,,,-99.99,,2013-05-10 05:02:00,
2013-05-10 01:12:00,66.0,62.0,30.16,ESE,104,3.0,5.0,88,-99.99,,,-99.99,,2013-05-10 05:12:00,
2013-05-10 01:22:00,66.0,62.0,30.16,ESE,104,3.0,5.0,88,-99.99,,,-99.99,,2013-05-10 05:22:00,
2013-05-10 01:32:00,66.0,62.0,30.16,ESE,104,3.0,5.0,88,-99.99,,,-99.99,,2013-05-10 05:32:00,
2013-05-10 01:42:00,65.0,61.0,30.15,ESE,111,3.0,4.0,86,-99.99,,,-99.99,,2013-05-10 05:42:00,
2013-05-10 01:52:00,65.0,61.0,30.15,ESE,111,3.0,4.0,86,-99.99,,,-99.99,,2013-05-10 05:52:00,
2013-05-10 02:02:00,65.0,61.0,30.15,ESE,109,3.0,4.0,86,-99.99,,,-99.99,,2013-05-10 06:02:00,
2013-05-10 02:12:00,65.0,61.0,30.15,East,82,3.0,4.0,85,-99.99,,,-99.99,,2013-05-10 06:12:00,
2013-05-10 02:22:00,65.0,61.0,30.15,East,82,3.0,4.0,85,-99.99,,,-99.99,,2013-05-10 06:22:00,
2013-05-10 02:32:00,65.0,61.0,30.15,East,82,3.0,4.0,85,-99.99,,,-99.99,,2013-05-10 06:32:00,
2013-05-10 02:42:00,63.0,60.0,30.14,ENE,72,1.0,2.0,88,-99.99,,,-99.99,,2013-05-10 06:42:00,
2013-05-10 02:52:00,63.0,60.0,30.14,ENE,72,1.0,2.0,88,-99.99,,,-99.99,,2013-05-10 06:52:00,
2013-05-10 03:02:00,62.0,58.0,30.13,ENE,68,1.0,1.0,88,-99.99,,,-99.99,,2013-05-10 07:02:00,
2013-05-10 03:12:00,61.0,58.0,30.12,ESE,113,1.0,3.0,89,-99.99,,,-99.99,,2013-05-10 07:12:00,
2013-05-10 03:22:00,61.0,58.0,30.12,ESE,113,1.0,3.0,89,-99.99,,,-99.99,,2013-05-10 07:22:00,
2013-05-10 03:32:00,61.0,58.0,30.12,ESE,113,1.0,3.0,89,-99.99,,,-99.99,,2013-05-10 07:32:00,
2013-05-10 03:42:00,60.0,57.0,30.11,East,98,1.0,3.0,90,-99.99,,,-99.99,,2013-05-10 07:42:00,
2013-05-10 03:52:00,60.0,57.0,30.11,East,98,1.0,3.0,90,-99.99,,,-99.99,,2013-05-10 07:52:00,
2013-05-10 04:02:00,60.0,58.0,30.11,ESE,104,1.0,2.0,91,-99.99,,,-99.99,,2013-05-10 08:02:00,
2013-05-10 04:12:00,60.0,58.0,30.11,ESE,104,1.0,2.0,91,-99.99,,,-99.99,,2013-05-10 08:12:00,
2013-05-10 04:22:00,61.0,58.0,30.11,East,97,1.0,2.0,92,-99.99,,,-99.99,,2013-05-10 08:22:00,
2013-05-10 04:32:00,61.0,58.0,30.11,East,97,1.0,2.0,92,-99.99,,,-99.99,,2013-05-10 08:32:00,
2013-05-10 04:42:00,60.0,57.0,30.11,East,93,2.0,3.0,92,-99.99,,,-99.99,,2013-05-10 08:42:00,
2013-05-10 04:52:00,60.0,57.0,30.11,East,93,2.0,3.0,92,-99.99,,,-99.99,,2013-05-10 08:52:00,
2013-05-10 05:02:00,60.0,57.0,30.11,ESE,104,2.0,4.0,92,-99.99,,,-99.99,,2013-05-10 09:02:00,
2013-05-10 05:11:00,59.0,57.0,30.10,ESE,102,2.0,3.0,92,-99.99,,,-99.99,,2013-05-10 09:11:00,
2013-05-10 05:21:00,59.0,57.0,30.10,ESE,102,2.0,3.0,92,-99.99,,,-99.99,,2013-05-10 09:21:00,
2013-05-10 05:33:00,59.0,57.0,30.10,ESE,102,2.0,3.0,92,-99.99,,,-99.99,,2013-05-10 09:33:00,
2013-05-10 05:43:00,62.0,60.0,30.10,East,95,3.0,4.0,93,-99.99,,,-99.99,,2013-05-10 09:43:00,
2013-05-10 05:53:00,62.0,60.0,30.10,East,95,3.0,4.0,93,-99.99,,,-99.99,,2013-05-10 09:53:00,
2013-05-10 06:03:00,63.0,61.0,30.10,ESE,112,3.0,5.0,93,-99.99,,,-99.99,,2013-05-10 10:03:00,
2013-05-10 06:12:00,63.0,61.0,30.10,ESE,112,3.0,5.0,93,-99.99,,,-99.99,,2013-05-10 10:12:00,
2013-05-10 06:23:00,63.0,61.0,30.10,ESE,112,3.0,5.0,93,-99.99,,,-99.99,,2013-05-10 10:23:00,
2013-05-10 06:32:00,63.0,61.0,30.10,ESE,112,3.0,5.0,93,-99.99,,,-99.99,,2013-05-10 10:32:00,
2013-05-10 06:42:00,64.0,62.0,30.09,ESE,112,4.0,6.0,93,-99.99,,,-99.99,,2013-05-10 10:42:00,
2013-05-10 06:53:00,64.0,62.0,30.09,ESE,112,4.0,6.0,93,-99.99,,,-99.99,,2013-05-10 10:53:00,
2013-05-10 07:02:00,65.0,63.0,30.09,ESE,116,4.0,6.0,93,-99.99,,,-99.99,,2013-05-10 11:02:00,
2013-05-10 07:12:00,65.0,63.0,30.09,ESE,111,4.0,6.0,93,-99.99,,,-99.99,,2013-05-10 11:12:00,
2013-05-10 07:22:00,65.0,63.0,30.09,ESE,111,4.0,6.0,93,-99.99,,,-99.99,,2013-05-10 11:22:00,
2013-05-10 07:32:00,65.0,63.0,30.09,ESE,111,4.0,6.0,93,-99.99,,,-99.99,,2013-05-10 11:32:00,
2013-05-10 07:42:00,67.0,65.0,30.11,ESE,109,3.0,4.0,93,-99.99,,,-99.99,,2013-05-10 11:42:00,
2013-05-10 07:52:00,67.0,65.0,30.11,ESE,109,3.0,4.0,93,-99.99,,,-99.99,,2013-05-10 11:52:00,
2013-05-10 08:02:00,67.0,65.0,30.11,ESE,117,3.0,5.0,93,-99.99,,,-99.99,,2013-05-10 12:02:00,
2013-05-10 08:12:00,68.0,66.0,30.11,ESE,115,4.0,11.0,92,-99.99,,,-99.99,,2013-05-10 12:12:00,
2013-05-10 08:22:00,68.0,66.0,30.11,ESE,115,4.0,11.0,92,-99.99,,,-99.99,,2013-05-10 12:22:00,
2013-05-10 08:32:00,68.0,66.0,30.11,ESE,115,4.0,11.0,92,-99.99,,,-99.99,,2013-05-10 12:32:00,
2013-05-10 08:42:00,72.0,68.0,30.12,ESE,121,5.0,9.0,89,-99.99,,,-99.99,,2013-05-10 12:42:00,
2013-05-10 08:52:00,72.0,68.0,30.12,ESE,121,5.0,9.0,89,-99.99,,,-99.99,,2013-05-10 12:52:00,
2013-05-10 09:01:00,74.0,69.0,30.12,ESE,123,5.0,9.0,85,-99.99,,,-99.99,,2013-05-10 13:01:00,
2013-05-10 09:11:00,76.0,70.0,30.12,SE,124,6.0,13.0,81,-99.99,,,-99.99,,2013-05-10 13:11:00,
2013-05-10 09:21:00,76.0,70.0,30.12,SE,124,6.0,13.0,81,-99.99,,,-99.99,,2013-05-10 13:21:00,
2013-05-10 09:32:00,76.0,70.0,30.12,SE,124,6.0,13.0,81,-99.99,,,-99.99,,2013-05-10 13:32:00,
2013-05-10 09:42:00,79.0,70.0,30.12,SE,124,9.0,12.0,74,-99.99,,,-99.99,,2013-05-10 13:42:00,
2013-05-10 09:52:00,79.0,70.0,30.12,SE,124,9.0,12.0,74,-99.99,,,-99.99,,2013-05-10 13:52:00,
2013-05-10 10:02:00,80.0,70.0,30.13,SE,131,9.0,13.0,71,-99.99,,,-99.99,,2013-05-10 14:02:00,
2013-05-10 10:11:00,80.0,69.0,30.13,SE,145,9.0,15.0,69,-99.99,,,-99.99,,2013-05-10 14:11:00,
2013-05-10 10:21:00,80.0,69.0,30.13,SE,145,9.0,15.0,69,-99.99,,,-99.99,,2013-05-10 14:21:00,
2013-05-10 10:32:00,81.0,69.0,30.13,SE,134,10.0,17.0,66,-99.99,,,-99.99,,2013-05-10 14:32:00,
2013-05-10 10:42:00,81.0,69.0,30.13,SE,134,10.0,17.0,66,-99.99,,,-99.99,,2013-05-10 14:42:00,
2013-05-10 10:52:00,82.0,69.0,30.13,SE,145,11.0,16.0,63,-99.99,,,-99.99,,2013-05-10 14:52:00,
2013-05-10 11:02:00,82.0,69.0,30.13,SE,145,11.0,16.0,63,-99.99,,,-99.99,,2013-05-10 15:02:00,
2013-05-10 11:20:00,-999.0,-99.9,30.13,SE,136,12.0,17.0,60,-99.99,,,-99.99,,2013-05-10 15:20:00,
2013-05-10 11:32:00,83.0,68.0,30.13,SE,136,12.0,17.0,60,-99.99,,,-99.99,,2013-05-10 15:32:00,
2013-05-10 11:42:00,84.0,68.0,30.12,SE,139,11.0,18.0,57,-99.99,,,-99.99,,2013-05-10 15:42:00,
2013-05-10 11:53:00,84.0,68.0,30.12,SE,139,11.0,18.0,57,-99.99,,,-99.99,,2013-05-10 15:53:00,
2013-05-10 12:02:00,85.0,68.0,30.12,SE,142,11.0,15.0,55,-99.99,,,-99.99,,2013-05-10 16:02:00,
2013-05-10 12:12:00,85.0,67.0,30.12,SE,135,10.0,16.0,53,-99.99,,,-99.99,,2013-05-10 16:12:00,
2013-05-10 12:23:00,85.0,67.0,30.12,SE,135,10.0,16.0,53,-99.99,,,-99.99,,2013-05-10 16:23:00,
2013-05-10 12:33:00,85.0,67.0,30.12,SE,135,10.0,16.0,53,-99.99,,,-99.99,,2013-05-10 16:33:00,
2013-05-10 12:43:00,87.0,66.0,30.12,SE,133,9.0,15.0,50,-99.99,,,-99.99,,2013-05-10 16:43:00,
2013-05-10 12:53:00,87.0,66.0,30.12,SE,133,9.0,15.0,50,-99.99,,,-99.99,,2013-05-10 16:53:00,
2013-05-10 13:02:00,87.0,66.0,30.12,SE,136,8.0,12.0,49,-99.99,,,-99.99,,2013-05-10 17:02:00,
2013-05-10 13:12:00,87.0,66.0,30.12,SE,134,9.0,13.0,49,-99.99,,,-99.99,,2013-05-10 17:12:00,
2013-05-10 13:22:00,87.0,66.0,30.12,SE,134,9.0,13.0,49,-99.99,,,-99.99,,2013-05-10 17:22:00,
2013-05-10 13:32:00,87.0,66.0,30.12,SE,134,9.0,13.0,49,-99.99,,,-99.99,,2013-05-10 17:32:00,
2013-05-10 13:42:00,88.0,65.0,30.12,SE,134,8.0,14.0,47,-99.99,,,-99.99,,2013-05-10 17:42:00,
2013-05-10 13:52:00,88.0,65.0,30.12,SE,134,8.0,14.0,47,-99.99,,,-99.99,,2013-05-10 17:52:00,
2013-05-10 14:11:00,-999.0,-99.9,30.11,SE,138,8.0,21.0,46,-99.99,,,-99.99,,2013-05-10 18:11:00,
2013-05-10 14:22:00,89.0,65.0,30.11,South,169,9.0,39.0,45,-99.99,,,-99.99,,2013-05-10 18:22:00,
2013-05-10 14:34:00,89.0,65.0,30.11,South,169,9.0,39.0,45,-99.99,,,-99.99,,2013-05-10 18:34:00,
2013-05-10 14:43:00,88.0,64.0,30.10,SE,146,8.0,36.0,45,-99.99,,,-99.99,,2013-05-10 18:43:00,
2013-05-10 14:54:00,88.0,64.0,30.10,SE,146,8.0,36.0,45,-99.99,,,-99.99,,2013-05-10 18:54:00,
2013-05-10 15:02:00,88.0,64.0,30.10,South,178,5.0,10.0,44,-99.99,,,-99.99,,2013-05-10 19:02:00,
2013-05-10 15:11:00,89.0,63.0,30.10,South,176,6.0,10.0,43,-99.99,,,-99.99,,2013-05-10 19:11:00,
2013-05-10 15:21:00,89.0,63.0,30.10,South,176,6.0,10.0,43,-99.99,,,-99.99,,2013-05-10 19:21:00,
2013-05-10 15:32:00,89.0,63.0,30.10,South,176,6.0,10.0,43,-99.99,,,-99.99,,2013-05-10 19:32:00,
2013-05-10 15:42:00,90.0,63.0,30.08,South,180,8.0,17.0,40,-99.99,,,-99.99,,2013-05-10 19:42:00,
2013-05-10 15:52:00,90.0,63.0,30.08,South,180,8.0,17.0,40,-99.99,,,-99.99,,2013-05-10 19:52:00,
2013-05-10 16:02:00,90.0,63.0,30.07,SSE,166,9.0,12.0,40,-99.99,,,-99.99,,2013-05-10 20:02:00,
2013-05-10 16:12:00,90.0,63.0,30.07,SSE,155,7.0,12.0,41,-99.99,,,-99.99,,2013-05-10 20:12:00,
2013-05-10 16:22:00,90.0,63.0,30.07,SSE,155,7.0,12.0,41,-99.99,,,-99.99,,2013-05-10 20:22:00,
2013-05-10 16:32:00,90.0,63.0,30.07,SSE,155,7.0,12.0,41,-99.99,,,-99.99,,2013-05-10 20:32:00,
2013-05-10 16:42:00,89.0,62.0,30.06,South,169,6.0,9.0,40,-99.99,,,-99.99,,2013-05-10 20:42:00,
2013-05-10 16:52:00,89.0,62.0,30.06,South,169,6.0,9.0,40,-99.99,,,-99.99,,2013-05-10 20:52:00,
2013-05-10 17:02:00,89.0,62.0,30.05,SW,226,4.0,10.0,41,-99.99,,,-99.99,,2013-05-10 21:02:00,
2013-05-10 17:11:00,91.0,61.0,30.05,SSW,193,4.0,10.0,38,-99.99,,,-99.99,,2013-05-10 21:11:00,
2013-05-10 17:25:00,91.0,61.0,30.05,SSW,193,4.0,10.0,38,-99.99,,,-99.99,,2013-05-10 21:25:00,
2013-05-10 17:32:00,91.0,61.0,30.05,SSW,193,4.0,10.0,38,-99.99,,,-99.99,,2013-05-10 21:32:00,
2013-05-10 17:43:00,89.0,62.0,30.04,SSE,150,5.0,8.0,41,-99.99,,,-99.99,,2013-05-10 21:43:00,
2013-05-10 17:53:00,89.0,62.0,30.04,SSE,150,5.0,8.0,41,-99.99,,,-99.99,,2013-05-10 21:53:00,
2013-05-10 18:03:00,88.0,63.0,30.04,ESE,104,3.0,5.0,42,-99.99,,,-99.99,,2013-05-10 22:03:00,
2013-05-10 18:13:00,88.0,63.0,30.03,ENE,75,4.0,6.0,43,-99.99,,,-99.99,,2013-05-10 22:13:00,
2013-05-10 18:22:00,88.0,63.0,30.03,ENE,75,4.0,6.0,43,-99.99,,,-99.99,,2013-05-10 22:22:00,
2013-05-10 18:32:00,88.0,63.0,30.03,ENE,75,4.0,6.0,43,-99.99,,,-99.99,,2013-05-10 22:32:00,
2013-05-10 18:42:00,90.0,62.0,30.03,ENE,68,5.0,8.0,39,-99.99,,,-99.99,,2013-05-10 22:42:00,
2013-05-10 18:53:00,90.0,62.0,30.03,ENE,68,5.0,8.0,39,-99.99,,,-99.99,,2013-05-10 22:53:00,
2013-05-10 19:02:00,89.0,65.0,30.03,SSE,153,6.0,14.0,44,-99.99,,,-99.99,,2013-05-10 23:02:00,
2013-05-10 19:12:00,85.0,68.0,30.03,ENE,69,10.0,16.0,55,-99.99,,,-99.99,,2013-05-10 23:12:00,
2013-05-10 19:22:00,85.0,68.0,30.03,ENE,69,10.0,16.0,55,-99.99,,,-99.99,,2013-05-10 23:22:00,
2013-05-10 19:33:00,85.0,68.0,30.03,ENE,69,10.0,16.0,55,-99.99,,,-99.99,,2013-05-10 23:33:00,
2013-05-10 19:42:00,83.0,69.0,30.04,ESE,104,9.0,14.0,61,-99.99,,,-99.99,,2013-05-10 23:42:00,
2013-05-10 19:52:00,83.0,69.0,30.04,ESE,104,9.0,14.0,61,-99.99,,,-99.99,,2013-05-10 23:52:00,
2013-05-10 20:02:00,82.0,68.0,30.04,ESE,115,8.0,13.0,62,-99.99,,,-99.99,,2013-05-11 00:02:00,
2013-05-10 20:11:00,81.0,68.0,30.04,ESE,122,8.0,12.0,64,-99.99,,,-99.99,,2013-05-11 00:11:00,
2013-05-10 20:22:00,81.0,68.0,30.04,ESE,122,8.0,12.0,64,-99.99,,,-99.99,,2013-05-11 00:22:00,
2013-05-10 20:32:00,81.0,68.0,30.04,ESE,122,8.0,12.0,64,-99.99,,,-99.99,,2013-05-11 00:32:00,
2013-05-10 20:42:00,79.0,69.0,30.05,ESE,118,8.0,13.0,71,-99.99,,,-99.99,,2013-05-11 00:42:00,
2013-05-10 20:52:00,79.0,69.0,30.05,ESE,118,8.0,13.0,71,-99.99,,,-99.99,,2013-05-11 00:52:00,
2013-05-10 21:01:00,79.0,70.0,30.06,ESE,121,8.0,14.0,72,-99.99,,,-99.99,,2013-05-11 01:01:00,
2013-05-10 21:11:00,79.0,70.0,30.06,SE,127,9.0,15.0,72,-99.99,,,-99.99,,2013-05-11 01:11:00,
2013-05-10 21:21:00,79.0,70.0,30.06,SE,127,9.0,15.0,72,-99.99,,,-99.99,,2013-05-11 01:21:00,
2013-05-10 21:32:00,79.0,69.0,30.06,SSE,148,7.0,12.0,70,-99.99,,,-99.99,,2013-05-11 01:32:00,
2013-05-10 21:42:00,78.0,64.0,30.05,SSE,151,7.0,11.0,62,-99.99,,,-99.99,,2013-05-11 01:42:00,
2013-05-10 21:52:00,78.0,64.0,30.05,SSE,151,7.0,11.0,62,-99.99,,,-99.99,,2013-05-11 01:52:00,
2013-05-10 22:02:00,76.0,65.0,30.06,SE,136,6.0,9.0,67,-99.99,,,-99.99,,2013-05-11 02:02:00,
2013-05-10 22:11:00,75.0,65.0,30.06,SE,138,5.0,8.0,72,-99.99,,,-99.99,,2013-05-11 02:11:00,
2013-05-10 22:22:00,75.0,65.0,30.06,SE,138,5.0,8.0,72,-99.99,,,-99.99,,2013-05-11 02:22:00,
2013-05-10 22:32:00,75.0,65.0,30.06,SE,138,5.0,8.0,72,-99.99,,,-99.99,,2013-05-11 02:32:00,
2013-05-10 22:42:00,73.0,64.0,30.06,South,173,4.0,5.0,73,-99.99,,,-99.99,,2013-05-11 02:42:00,
2013-05-10 22:52:00,72.0,64.0,30.06,SSE,161,3.0,6.0,75,-99.99,,,-99.99,,2013-05-11 02:52:00,
2013-05-10 23:01:00,71.0,64.0,30.06,South,172,3.0,4.0,77,-99.99,,,-99.99,,2013-05-11 03:01:00,
2013-05-10 23:11:00,71.0,64.0,30.06,South,172,3.0,4.0,77,-99.99,,,-99.99,,2013-05-11 03:11:00,
2013-05-10 23:21:00,71.0,64.0,30.06,South,172,3.0,4.0,77,-99.99,,,-99.99,,2013-05-11 03:21:00,
2013-05-10 23:33:00,71.0,64.0,30.07,SSE,165,3.0,6.0,78,-99.99,,,-99.99,,2013-05-11 03:33:00,
2013-05-10 23:42:00,70.0,64.0,30.07,NE,48,5.0,6.0,81,-99.99,,,-99.99,,2013-05-11 03:42:00,
2013-05-10 23:53:00,70.0,64.0,30.07,NE,48,5.0,6.0,81,-99.99,,,-99.99,,2013-05-11 03:53:00,